sensor_id;sensor_type;location;lat;lon;timestamp;P1;durP1;ratioP1;P2;durP2;ratioP2
42886;SDS011;29032;56.028;92.904;2023-02-18T00:04:09;17.57;;;7.67;;
42886;SDS011;29032;56.028;92.904;2023-02-18T00:09:13;18.73;;;7.40;;
42886;SDS011;29032;56.028;92.904;2023-02-18T00:14:15;19.60;;;7.83;;
42886;SDS011;29032;56.028;92.904;2023-02-18T00:19:18;19.73;;;7.33;;
42886;SDS011;29032;56.028;92.904;2023-02-18T00:24:22;16.77;;;7.60;;
42886;SDS011;29032;56.028;92.904;2023-02-18T00:29:24;12.47;;;6.60;;
42886;SDS011;29032;56.028;92.904;2023-02-18T00:34:26;13.27;;;7.27;;
42886;SDS011;29032;56.028;92.904;2023-02-18T00:39:30;16.57;;;7.30;;
42886;SDS011;29032;56.028;92.904;2023-02-18T00:44:32;15.50;;;8.30;;
42886;SDS011;29032;56.028;92.904;2023-02-18T00:49:34;18.53;;;8.50;;
42886;SDS011;29032;56.028;92.904;2023-02-18T00:54:39;17.23;;;8.23;;
42886;SDS011;29032;56.028;92.904;2023-02-18T00:59:41;20.43;;;8.57;;
42886;SDS011;29032;56.028;92.904;2023-02-18T01:04:43;17.50;;;7.97;;
42886;SDS011;29032;56.028;92.904;2023-02-18T01:09:47;17.50;;;7.23;;
42886;SDS011;29032;56.028;92.904;2023-02-18T01:14:50;15.27;;;7.57;;
42886;SDS011;29032;56.028;92.904;2023-02-18T01:19:52;16.47;;;8.10;;
42886;SDS011;29032;56.028;92.904;2023-02-18T01:24:56;18.47;;;7.80;;
42886;SDS011;29032;56.028;92.904;2023-02-18T01:30:00;20.40;;;9.63;;
42886;SDS011;29032;56.028;92.904;2023-02-18T01:35:03;19.90;;;8.20;;
42886;SDS011;29032;56.028;92.904;2023-02-18T01:40:09;21.97;;;8.37;;
42886;SDS011;29032;56.028;92.904;2023-02-18T01:50:52;18.63;;;7.73;;
42886;SDS011;29032;56.028;92.904;2023-02-18T01:55:59;20.67;;;8.00;;
42886;SDS011;29032;56.028;92.904;2023-02-18T02:01:04;21.13;;;9.52;;
42886;SDS011;29032;56.028;92.904;2023-02-18T02:06:10;17.87;;;9.00;;
42886;SDS011;29032;56.028;92.904;2023-02-18T02:11:22;18.20;;;8.60;;
42886;SDS011;29032;56.028;92.904;2023-02-18T02:16:36;16.92;;;7.60;;
42886;SDS011;29032;56.028;92.904;2023-02-18T02:21:51;17.97;;;9.10;;
42886;SDS011;29032;56.028;92.904;2023-02-18T02:27:14;17.20;;;8.33;;
42886;SDS011;29032;56.028;92.904;2023-02-18T02:38:11;18.43;;;8.93;;
42886;SDS011;29032;56.028;92.904;2023-02-18T02:43:20;19.20;;;8.90;;
42886;SDS011;29032;56.028;92.904;2023-02-18T02:48:31;20.93;;;8.77;;
42886;SDS011;29032;56.028;92.904;2023-02-18T02:53:40;19.37;;;8.80;;
42886;SDS011;29032;56.028;92.904;2023-02-18T02:58:43;18.70;;;10.40;;
42886;SDS011;29032;56.028;92.904;2023-02-18T03:09:25;20.57;;;10.73;;
42886;SDS011;29032;56.028;92.904;2023-02-18T03:14:40;22.43;;;11.83;;
42886;SDS011;29032;56.028;92.904;2023-02-18T03:19:50;23.00;;;11.20;;
42886;SDS011;29032;56.028;92.904;2023-02-18T03:24:58;24.13;;;10.60;;
42886;SDS011;29032;56.028;92.904;2023-02-18T03:30:03;25.33;;;12.60;;
42886;SDS011;29032;56.028;92.904;2023-02-18T03:35:12;28.77;;;12.53;;
42886;SDS011;29032;56.028;92.904;2023-02-18T03:40:17;29.53;;;11.70;;
42886;SDS011;29032;56.028;92.904;2023-02-18T03:45:20;23.67;;;10.97;;
42886;SDS011;29032;56.028;92.904;2023-02-18T03:50:22;21.83;;;11.30;;
42886;SDS011;29032;56.028;92.904;2023-02-18T03:55:26;25.77;;;11.27;;
42886;SDS011;29032;56.028;92.904;2023-02-18T04:00:28;16.63;;;9.53;;
42886;SDS011;29032;56.028;92.904;2023-02-18T04:05:30;19.13;;;9.17;;
42886;SDS011;29032;56.028;92.904;2023-02-18T04:10:34;21.33;;;8.77;;
42886;SDS011;29032;56.028;92.904;2023-02-18T04:15:36;21.17;;;9.90;;
42886;SDS011;29032;56.028;92.904;2023-02-18T04:20:39;18.03;;;9.80;;
42886;SDS011;29032;56.028;92.904;2023-02-18T04:25:42;18.50;;;9.43;;
42886;SDS011;29032;56.028;92.904;2023-02-18T04:30:45;16.23;;;9.03;;
42886;SDS011;29032;56.028;92.904;2023-02-18T04:35:47;16.17;;;10.00;;
42886;SDS011;29032;56.028;92.904;2023-02-18T04:40:51;20.23;;;9.93;;
42886;SDS011;29032;56.028;92.904;2023-02-18T04:45:53;20.37;;;9.33;;
42886;SDS011;29032;56.028;92.904;2023-02-18T04:50:55;21.60;;;10.33;;
42886;SDS011;29032;56.028;92.904;2023-02-18T04:55:59;17.47;;;9.13;;
42886;SDS011;29032;56.028;92.904;2023-02-18T05:01:02;18.97;;;8.50;;
42886;SDS011;29032;56.028;92.904;2023-02-18T05:06:05;19.70;;;10.07;;
42886;SDS011;29032;56.028;92.904;2023-02-18T05:11:09;21.60;;;10.73;;
42886;SDS011;29032;56.028;92.904;2023-02-18T05:16:11;16.57;;;9.23;;
42886;SDS011;29032;56.028;92.904;2023-02-18T05:21:13;20.83;;;9.87;;
42886;SDS011;29032;56.028;92.904;2023-02-18T05:26:16;21.67;;;9.20;;
42886;SDS011;29032;56.028;92.904;2023-02-18T05:31:19;19.27;;;10.90;;
42886;SDS011;29032;56.028;92.904;2023-02-18T05:36:21;20.40;;;9.80;;
42886;SDS011;29032;56.028;92.904;2023-02-18T05:41:25;16.67;;;9.63;;
42886;SDS011;29032;56.028;92.904;2023-02-18T05:46:27;16.60;;;9.40;;
42886;SDS011;29032;56.028;92.904;2023-02-18T05:51:29;15.97;;;8.90;;
42886;SDS011;29032;56.028;92.904;2023-02-18T05:56:33;18.70;;;9.63;;
42886;SDS011;29032;56.028;92.904;2023-02-18T06:01:35;15.83;;;8.83;;
42886;SDS011;29032;56.028;92.904;2023-02-18T06:06:37;16.27;;;8.33;;
42886;SDS011;29032;56.028;92.904;2023-02-18T06:11:41;17.73;;;9.13;;
42886;SDS011;29032;56.028;92.904;2023-02-18T06:16:43;12.90;;;8.70;;
42886;SDS011;29032;56.028;92.904;2023-02-18T06:21:45;13.13;;;8.20;;
42886;SDS011;29032;56.028;92.904;2023-02-18T06:26:48;13.50;;;7.63;;
42886;SDS011;29032;56.028;92.904;2023-02-18T06:31:51;17.23;;;9.13;;
42886;SDS011;29032;56.028;92.904;2023-02-18T06:36:53;16.17;;;9.07;;
42886;SDS011;29032;56.028;92.904;2023-02-18T06:41:56;14.63;;;7.77;;
42886;SDS011;29032;56.028;92.904;2023-02-18T06:46:58;14.67;;;8.03;;
42886;SDS011;29032;56.028;92.904;2023-02-18T06:52:01;22.27;;;10.13;;
42886;SDS011;29032;56.028;92.904;2023-02-18T06:57:04;24.20;;;8.97;;
42886;SDS011;29032;56.028;92.904;2023-02-18T07:02:06;21.37;;;10.03;;
42886;SDS011;29032;56.028;92.904;2023-02-18T07:07:10;19.97;;;9.00;;
42886;SDS011;29032;56.028;92.904;2023-02-18T07:12:14;16.60;;;8.83;;
42886;SDS011;29032;56.028;92.904;2023-02-18T07:17:16;23.37;;;10.73;;
42886;SDS011;29032;56.028;92.904;2023-02-18T07:22:18;21.50;;;9.50;;
42886;SDS011;29032;56.028;92.904;2023-02-18T07:27:22;15.33;;;9.03;;
42886;SDS011;29032;56.028;92.904;2023-02-18T07:32:24;14.00;;;8.53;;
42886;SDS011;29032;56.028;92.904;2023-02-18T07:37:26;16.90;;;8.57;;
42886;SDS011;29032;56.028;92.904;2023-02-18T07:42:30;18.17;;;9.43;;
42886;SDS011;29032;56.028;92.904;2023-02-18T07:47:32;15.80;;;8.60;;
42886;SDS011;29032;56.028;92.904;2023-02-18T07:52:34;14.17;;;8.60;;
42886;SDS011;29032;56.028;92.904;2023-02-18T07:57:38;14.17;;;7.63;;
42886;SDS011;29032;56.028;92.904;2023-02-18T08:02:40;16.83;;;8.90;;
42886;SDS011;29032;56.028;92.904;2023-02-18T08:07:43;18.60;;;9.07;;
42886;SDS011;29032;56.028;92.904;2023-02-18T08:12:47;16.13;;;8.43;;
42886;SDS011;29032;56.028;92.904;2023-02-18T08:17:49;16.37;;;8.73;;
42886;SDS011;29032;56.028;92.904;2023-02-18T08:22:51;19.40;;;9.53;;
42886;SDS011;29032;56.028;92.904;2023-02-18T08:27:54;15.70;;;9.03;;
42886;SDS011;29032;56.028;92.904;2023-02-18T08:32:57;16.10;;;8.53;;
42886;SDS011;29032;56.028;92.904;2023-02-18T08:37:59;14.10;;;8.83;;
42886;SDS011;29032;56.028;92.904;2023-02-18T08:43:02;18.33;;;9.20;;
42886;SDS011;29032;56.028;92.904;2023-02-18T08:48:05;13.70;;;7.43;;
42886;SDS011;29032;56.028;92.904;2023-02-18T08:53:08;15.93;;;8.07;;
42886;SDS011;29032;56.028;92.904;2023-02-18T08:58:12;15.47;;;8.77;;
42886;SDS011;29032;56.028;92.904;2023-02-18T09:03:14;16.67;;;8.87;;
42886;SDS011;29032;56.028;92.904;2023-02-18T09:08:16;14.77;;;8.57;;
42886;SDS011;29032;56.028;92.904;2023-02-18T09:13:20;17.33;;;8.57;;
42886;SDS011;29032;56.028;92.904;2023-02-18T09:18:22;17.20;;;8.50;;
42886;SDS011;29032;56.028;92.904;2023-02-18T09:23:25;14.67;;;7.60;;
42886;SDS011;29032;56.028;92.904;2023-02-18T09:28:29;14.03;;;8.27;;
42886;SDS011;29032;56.028;92.904;2023-02-18T09:33:33;13.47;;;7.80;;
42886;SDS011;29032;56.028;92.904;2023-02-18T09:38:35;20.63;;;9.20;;
42886;SDS011;29032;56.028;92.904;2023-02-18T09:43:40;16.87;;;8.03;;
42886;SDS011;29032;56.028;92.904;2023-02-18T09:48:44;17.73;;;9.20;;
42886;SDS011;29032;56.028;92.904;2023-02-18T09:53:48;17.20;;;10.27;;
42886;SDS011;29032;56.028;92.904;2023-02-18T09:58:52;18.60;;;9.43;;
42886;SDS011;29032;56.028;92.904;2023-02-18T10:03:55;17.00;;;10.23;;
42886;SDS011;29032;56.028;92.904;2023-02-18T10:09:02;20.77;;;12.20;;
42886;SDS011;29032;56.028;92.904;2023-02-18T10:14:13;24.50;;;12.00;;
42886;SDS011;29032;56.028;92.904;2023-02-18T10:19:21;21.90;;;11.30;;
42886;SDS011;29032;56.028;92.904;2023-02-18T10:24:27;19.23;;;10.93;;
42886;SDS011;29032;56.028;92.904;2023-02-18T10:29:33;28.83;;;14.60;;
42886;SDS011;29032;56.028;92.904;2023-02-18T10:34:39;26.37;;;11.90;;
42886;SDS011;29032;56.028;92.904;2023-02-18T10:40:01;27.10;;;12.40;;
42886;SDS011;29032;56.028;92.904;2023-02-18T10:45:14;20.67;;;12.57;;
42886;SDS011;29032;56.028;92.904;2023-02-18T10:50:26;23.30;;;12.73;;
42886;SDS011;29032;56.028;92.904;2023-02-18T10:55:34;19.50;;;11.40;;
42886;SDS011;29032;56.028;92.904;2023-02-18T11:05:41;25.57;;;12.37;;
42886;SDS011;29032;56.028;92.904;2023-02-18T11:10:44;26.77;;;13.67;;
42886;SDS011;29032;56.028;92.904;2023-02-18T11:15:57;29.47;;;14.87;;
42886;SDS011;29032;56.028;92.904;2023-02-18T11:21:02;29.20;;;15.50;;
42886;SDS011;29032;56.028;92.904;2023-02-18T11:26:06;29.27;;;17.07;;
42886;SDS011;29032;56.028;92.904;2023-02-18T11:31:19;34.23;;;17.70;;
42886;SDS011;29032;56.028;92.904;2023-02-18T11:36:24;37.77;;;18.97;;
42886;SDS011;29032;56.028;92.904;2023-02-18T11:41:31;37.77;;;20.13;;
42886;SDS011;29032;56.028;92.904;2023-02-18T11:46:37;39.97;;;19.67;;
42886;SDS011;29032;56.028;92.904;2023-02-18T11:52:03;35.30;;;18.27;;
42886;SDS011;29032;56.028;92.904;2023-02-18T11:57:14;32.87;;;17.87;;
42886;SDS011;29032;56.028;92.904;2023-02-18T12:02:25;30.13;;;17.37;;
42886;SDS011;29032;56.028;92.904;2023-02-18T12:07:35;29.43;;;15.93;;
42886;SDS011;29032;56.028;92.904;2023-02-18T12:12:44;30.90;;;16.67;;
42886;SDS011;29032;56.028;92.904;2023-02-18T12:17:59;32.50;;;16.17;;
42886;SDS011;29032;56.028;92.904;2023-02-18T12:23:18;32.03;;;15.77;;
42886;SDS011;29032;56.028;92.904;2023-02-18T12:28:36;35.37;;;16.63;;
42886;SDS011;29032;56.028;92.904;2023-02-18T12:33:57;32.60;;;17.20;;
42886;SDS011;29032;56.028;92.904;2023-02-18T12:39:10;33.57;;;17.90;;
42886;SDS011;29032;56.028;92.904;2023-02-18T12:44:25;32.07;;;15.47;;
42886;SDS011;29032;56.028;92.904;2023-02-18T12:55:26;31.67;;;15.30;;
42886;SDS011;29032;56.028;92.904;2023-02-18T13:05:59;32.77;;;15.47;;
42886;SDS011;29032;56.028;92.904;2023-02-18T13:11:14;29.63;;;15.50;;
42886;SDS011;29032;56.028;92.904;2023-02-18T13:16:32;31.60;;;16.43;;
42886;SDS011;29032;56.028;92.904;2023-02-18T13:21:37;27.83;;;14.93;;
42886;SDS011;29032;56.028;92.904;2023-02-18T13:26:40;29.77;;;14.97;;
42886;SDS011;29032;56.028;92.904;2023-02-18T13:31:51;28.53;;;15.37;;
42886;SDS011;29032;56.028;92.904;2023-02-18T13:37:05;36.43;;;16.27;;
42886;SDS011;29032;56.028;92.904;2023-02-18T13:42:23;32.73;;;17.03;;
42886;SDS011;29032;56.028;92.904;2023-02-18T13:47:36;24.77;;;13.63;;
42886;SDS011;29032;56.028;92.904;2023-02-18T13:52:42;32.73;;;14.53;;
42886;SDS011;29032;56.028;92.904;2023-02-18T13:57:45;30.97;;;13.40;;
42886;SDS011;29032;56.028;92.904;2023-02-18T14:02:56;24.70;;;13.83;;
42886;SDS011;29032;56.028;92.904;2023-02-18T14:08:10;23.63;;;12.40;;
42886;SDS011;29032;56.028;92.904;2023-02-18T14:13:24;24.07;;;11.80;;
42886;SDS011;29032;56.028;92.904;2023-02-18T14:18:55;24.97;;;12.83;;
42886;SDS011;29032;56.028;92.904;2023-02-18T14:24:01;30.33;;;13.00;;
42886;SDS011;29032;56.028;92.904;2023-02-18T14:29:06;31.93;;;13.37;;
42886;SDS011;29032;56.028;92.904;2023-02-18T14:39:46;28.77;;;15.40;;
42886;SDS011;29032;56.028;92.904;2023-02-18T14:45:01;26.53;;;14.67;;
42886;SDS011;29032;56.028;92.904;2023-02-18T14:50:12;29.37;;;14.33;;
42886;SDS011;29032;56.028;92.904;2023-02-18T14:55:19;30.20;;;14.30;;
42886;SDS011;29032;56.028;92.904;2023-02-18T15:00:25;29.33;;;14.00;;
42886;SDS011;29032;56.028;92.904;2023-02-18T15:05:30;27.17;;;14.70;;
42886;SDS011;29032;56.028;92.904;2023-02-18T15:10:39;30.93;;;16.67;;
42886;SDS011;29032;56.028;92.904;2023-02-18T15:15:43;29.37;;;14.53;;
42886;SDS011;29032;56.028;92.904;2023-02-18T15:20:48;30.27;;;14.50;;
42886;SDS011;29032;56.028;92.904;2023-02-18T15:25:52;28.77;;;15.83;;
42886;SDS011;29032;56.028;92.904;2023-02-18T15:30:55;32.60;;;15.30;;
42886;SDS011;29032;56.028;92.904;2023-02-18T15:36:01;25.73;;;14.57;;
42886;SDS011;29032;56.028;92.904;2023-02-18T15:41:05;33.27;;;17.77;;
42886;SDS011;29032;56.028;92.904;2023-02-18T15:46:12;34.27;;;17.37;;
42886;SDS011;29032;56.028;92.904;2023-02-18T15:51:16;30.10;;;15.27;;
42886;SDS011;29032;56.028;92.904;2023-02-18T15:56:23;32.97;;;15.77;;
42886;SDS011;29032;56.028;92.904;2023-02-18T16:01:29;29.50;;;15.37;;
42886;SDS011;29032;56.028;92.904;2023-02-18T16:06:34;33.23;;;16.93;;
42886;SDS011;29032;56.028;92.904;2023-02-18T16:11:41;28.83;;;14.43;;
42886;SDS011;29032;56.028;92.904;2023-02-18T16:16:45;29.17;;;14.73;;
42886;SDS011;29032;56.028;92.904;2023-02-18T16:22:16;27.00;;;13.87;;
42886;SDS011;29032;56.028;92.904;2023-02-18T16:27:29;29.50;;;14.20;;
42886;SDS011;29032;56.028;92.904;2023-02-18T16:32:33;29.13;;;14.90;;
42886;SDS011;29032;56.028;92.904;2023-02-18T16:37:35;28.40;;;15.87;;
42886;SDS011;29032;56.028;92.904;2023-02-18T16:42:39;28.73;;;14.13;;
42886;SDS011;29032;56.028;92.904;2023-02-18T16:47:41;29.33;;;16.27;;
42886;SDS011;29032;56.028;92.904;2023-02-18T16:52:45;25.60;;;14.73;;
42886;SDS011;29032;56.028;92.904;2023-02-18T16:57:49;27.03;;;14.90;;
42886;SDS011;29032;56.028;92.904;2023-02-18T17:02:52;27.87;;;16.30;;
42886;SDS011;29032;56.028;92.904;2023-02-18T17:07:57;28.17;;;15.17;;
42886;SDS011;29032;56.028;92.904;2023-02-18T17:13:08;34.30;;;16.17;;
42886;SDS011;29032;56.028;92.904;2023-02-18T17:18:13;32.37;;;16.73;;
42886;SDS011;29032;56.028;92.904;2023-02-18T17:23:15;32.67;;;14.67;;
42886;SDS011;29032;56.028;92.904;2023-02-18T17:28:20;27.97;;;15.13;;
42886;SDS011;29032;56.028;92.904;2023-02-18T17:33:22;31.13;;;15.23;;
42886;SDS011;29032;56.028;92.904;2023-02-18T17:38:25;29.20;;;15.80;;
42886;SDS011;29032;56.028;92.904;2023-02-18T17:43:28;32.73;;;16.13;;
42886;SDS011;29032;56.028;92.904;2023-02-18T17:48:31;31.47;;;15.67;;
42886;SDS011;29032;56.028;92.904;2023-02-18T17:53:33;32.83;;;15.87;;
42886;SDS011;29032;56.028;92.904;2023-02-18T17:58:37;31.30;;;16.50;;
42886;SDS011;29032;56.028;92.904;2023-02-18T18:03:39;26.87;;;14.87;;
42886;SDS011;29032;56.028;92.904;2023-02-18T18:08:41;29.63;;;15.70;;
42886;SDS011;29032;56.028;92.904;2023-02-18T18:13:45;29.13;;;15.77;;
42886;SDS011;29032;56.028;92.904;2023-02-18T18:18:47;28.07;;;14.37;;
42886;SDS011;29032;56.028;92.904;2023-02-18T18:23:49;30.37;;;16.27;;
42886;SDS011;29032;56.028;92.904;2023-02-18T18:28:53;33.53;;;15.57;;
42886;SDS011;29032;56.028;92.904;2023-02-18T18:33:55;30.90;;;15.47;;
42886;SDS011;29032;56.028;92.904;2023-02-18T18:38:57;29.97;;;14.77;;
42886;SDS011;29032;56.028;92.904;2023-02-18T18:44:01;31.43;;;14.53;;
42886;SDS011;29032;56.028;92.904;2023-02-18T18:49:04;27.87;;;15.00;;
42886;SDS011;29032;56.028;92.904;2023-02-18T18:54:07;24.50;;;14.83;;
42886;SDS011;29032;56.028;92.904;2023-02-18T18:59:11;27.27;;;13.67;;
42886;SDS011;29032;56.028;92.904;2023-02-18T19:04:13;24.60;;;13.87;;
42886;SDS011;29032;56.028;92.904;2023-02-18T19:09:15;24.63;;;13.00;;
42886;SDS011;29032;56.028;92.904;2023-02-18T19:14:19;22.73;;;13.27;;
42886;SDS011;29032;56.028;92.904;2023-02-18T19:19:21;23.00;;;13.60;;
42886;SDS011;29032;56.028;92.904;2023-02-18T19:24:23;27.13;;;13.33;;
42886;SDS011;29032;56.028;92.904;2023-02-18T19:29:27;23.20;;;13.07;;
42886;SDS011;29032;56.028;92.904;2023-02-18T19:34:29;24.90;;;14.03;;
42886;SDS011;29032;56.028;92.904;2023-02-18T19:39:33;28.70;;;14.90;;
42886;SDS011;29032;56.028;92.904;2023-02-18T19:44:36;26.93;;;13.73;;
42886;SDS011;29032;56.028;92.904;2023-02-18T19:49:39;30.03;;;15.13;;
42886;SDS011;29032;56.028;92.904;2023-02-18T19:54:41;34.60;;;15.67;;
42886;SDS011;29032;56.028;92.904;2023-02-18T19:59:44;32.50;;;15.80;;
42886;SDS011;29032;56.028;92.904;2023-02-18T20:04:47;29.30;;;13.80;;
42886;SDS011;29032;56.028;92.904;2023-02-18T20:09:50;33.43;;;15.37;;
42886;SDS011;29032;56.028;92.904;2023-02-18T20:14:54;30.17;;;14.73;;
42886;SDS011;29032;56.028;92.904;2023-02-18T20:19:56;27.67;;;15.00;;
42886;SDS011;29032;56.028;92.904;2023-02-18T20:24:58;34.03;;;15.57;;
42886;SDS011;29032;56.028;92.904;2023-02-18T20:30:02;31.87;;;16.03;;
42886;SDS011;29032;56.028;92.904;2023-02-18T20:35:05;30.60;;;15.27;;
42886;SDS011;29032;56.028;92.904;2023-02-18T20:40:08;30.30;;;15.40;;
42886;SDS011;29032;56.028;92.904;2023-02-18T20:45:12;31.97;;;14.93;;
42886;SDS011;29032;56.028;92.904;2023-02-18T20:50:15;33.47;;;15.33;;
42886;SDS011;29032;56.028;92.904;2023-02-18T20:55:17;28.97;;;15.33;;
42886;SDS011;29032;56.028;92.904;2023-02-18T21:00:21;28.93;;;15.53;;
42886;SDS011;29032;56.028;92.904;2023-02-18T21:05:23;32.10;;;15.60;;
42886;SDS011;29032;56.028;92.904;2023-02-18T21:10:25;27.03;;;15.30;;
42886;SDS011;29032;56.028;92.904;2023-02-18T21:15:28;34.10;;;16.37;;
42886;SDS011;29032;56.028;92.904;2023-02-18T21:20:30;30.40;;;14.67;;
42886;SDS011;29032;56.028;92.904;2023-02-18T21:25:33;25.63;;;13.80;;
42886;SDS011;29032;56.028;92.904;2023-02-18T21:30:38;28.03;;;15.20;;
42886;SDS011;29032;56.028;92.904;2023-02-18T21:35:42;28.93;;;16.77;;
42886;SDS011;29032;56.028;92.904;2023-02-18T21:40:44;30.97;;;16.63;;
42886;SDS011;29032;56.028;92.904;2023-02-18T21:45:48;31.80;;;16.10;;
42886;SDS011;29032;56.028;92.904;2023-02-18T21:50:50;27.83;;;16.33;;
42886;SDS011;29032;56.028;92.904;2023-02-18T21:55:52;34.10;;;16.90;;
42886;SDS011;29032;56.028;92.904;2023-02-18T22:00:56;30.50;;;16.70;;
42886;SDS011;29032;56.028;92.904;2023-02-18T22:05:58;32.17;;;16.73;;
42886;SDS011;29032;56.028;92.904;2023-02-18T22:11:02;31.97;;;16.77;;
42886;SDS011;29032;56.028;92.904;2023-02-18T22:16:06;32.80;;;16.63;;
42886;SDS011;29032;56.028;92.904;2023-02-18T22:21:08;33.37;;;16.77;;
42886;SDS011;29032;56.028;92.904;2023-02-18T22:26:11;33.57;;;17.43;;
42886;SDS011;29032;56.028;92.904;2023-02-18T22:31:14;33.47;;;16.50;;
42886;SDS011;29032;56.028;92.904;2023-02-18T22:36:16;35.60;;;17.17;;
42886;SDS011;29032;56.028;92.904;2023-02-18T22:41:21;30.10;;;16.40;;
42886;SDS011;29032;56.028;92.904;2023-02-18T22:46:26;31.07;;;16.13;;
42886;SDS011;29032;56.028;92.904;2023-02-18T22:51:29;30.80;;;15.80;;
42886;SDS011;29032;56.028;92.904;2023-02-18T22:56:32;31.90;;;16.57;;
42886;SDS011;29032;56.028;92.904;2023-02-18T23:01:37;33.07;;;17.37;;
42886;SDS011;29032;56.028;92.904;2023-02-18T23:06:41;39.10;;;19.40;;
42886;SDS011;29032;56.028;92.904;2023-02-18T23:11:47;38.77;;;19.73;;
42886;SDS011;29032;56.028;92.904;2023-02-18T23:16:52;41.50;;;22.13;;
42886;SDS011;29032;56.028;92.904;2023-02-18T23:21:56;58.43;;;26.97;;
42886;SDS011;29032;56.028;92.904;2023-02-18T23:26:58;41.60;;;22.60;;
42886;SDS011;29032;56.028;92.904;2023-02-18T23:32:02;56.93;;;26.80;;
42886;SDS011;29032;56.028;92.904;2023-02-18T23:37:05;56.67;;;26.63;;
42886;SDS011;29032;56.028;92.904;2023-02-18T23:42:07;61.23;;;28.70;;
42886;SDS011;29032;56.028;92.904;2023-02-18T23:47:11;69.80;;;31.73;;
42886;SDS011;29032;56.028;92.904;2023-02-18T23:52:13;74.30;;;34.80;;
42886;SDS011;29032;56.028;92.904;2023-02-18T23:57:15;74.10;;;32.83;;
